Time;durP1;ratioP1;P1;durP2;ratioP2;P2;SDS_P1;SDS_P2;PMS_P1;PMS_P2;Temp;Humidity;BMP_temperature;BMP_pressure;BME280_temperature;BME280_humidity;BME280_pressure;Samples;Min_cycle;Max_cycle;Signal;HPM_P1;HPM_P2
2023/10/11 00:00:31;;;;;;;14.82;5.97;;;;;;;15.11;77.55;100265.94;6018861;23;20026;-93
2023/10/11 00:05:46;;;;;;;14.75;6.38;;;;;;;15.14;78.28;100271.84;6042399;23;20024;-93
2023/10/11 00:08:16;;;;;;;13.50;6.30;;;;;;;15.17;77.86;100270.69;6016725;23;20023;-93
2023/10/11 00:10:53;;;;;;;14.23;5.57;;;;;;;15.14;77.71;100271.84;6064619;23;20105;-93
2023/10/11 00:13:23;;;;;;;16.58;6.38;;;;;;;15.20;77.78;100275.72;6017736;23;20018;-93
2023/10/11 00:15:51;;;;;;;15.90;6.40;;;;;;;15.19;77.64;100269.53;6040962;23;20375;-93
2023/10/11 00:18:26;;;;;;;11.98;5.70;;;;;;;15.20;77.35;100265.03;6040824;23;20082;-93
2023/10/11 00:20:58;;;;;;;13.30;6.22;;;;;;;15.23;77.53;100271.91;6041528;23;20026;-93
2023/10/11 00:23:27;;;;;;;12.57;5.85;;;;;;;15.20;77.47;100268.53;6018138;23;20025;-92
2023/10/11 00:25:58;;;;;;;14.35;5.65;;;;;;;15.21;77.39;100269.38;6064056;23;20030;-93
2023/10/11 00:28:26;;;;;;;13.60;5.97;;;;;;;15.18;77.37;100272.34;6016610;23;20479;-94
2023/10/11 00:30:59;;;;;;;16.25;5.85;;;;;;;15.11;77.36;100271.28;6017675;23;20022;-92
2023/10/11 00:33:27;;;;;;;14.55;6.35;;;;;;;15.13;77.50;100264.78;6064700;23;20045;-92
2023/10/11 00:36:05;;;;;;;18.80;5.93;;;;;;;15.13;77.60;100266.63;6021042;23;20457;-93
2023/10/11 00:38:42;;;;;;;16.98;6.60;;;;;;;15.08;77.85;100259.06;6064775;23;20037;-92
2023/10/11 00:41:15;;;;;;;17.17;5.47;;;;;;;15.07;77.51;100257.41;6040562;23;20046;-92
2023/10/11 00:43:47;;;;;;;13.43;6.30;;;;;;;15.08;77.64;100255.56;6017926;23;20070;-93
2023/10/11 00:46:18;;;;;;;16.20;6.80;;;;;;;15.12;77.56;100254.25;6040291;23;20469;-92
2023/10/11 00:48:53;;;;;;;16.08;5.72;;;;;;;15.14;77.79;100260.31;6064889;23;20098;-92
2023/10/11 00:51:26;;;;;;;14.13;5.28;;;;;;;15.08;77.55;100252.88;6018035;23;20019;-93
2023/10/11 00:53:54;;;;;;;19.85;6.28;;;;;;;15.11;77.55;100253.44;6063254;23;20022;-93
2023/10/11 00:56:22;;;;;;;14.20;5.72;;;;;;;15.09;77.69;100252.75;6040225;23;20343;-92
2023/10/11 00:58:49;;;;;;;11.43;5.38;;;;;;;15.10;77.43;100253.56;6039735;23;20038;-92
2023/10/11 01:01:17;;;;;;;13.98;5.72;;;;;;;15.13;77.63;100254.09;6016178;23;20022;-93
2023/10/11 01:03:46;;;;;;;18.30;5.80;;;;;;;15.09;77.38;100252.75;6041913;23;20026;-94
2023/10/11 01:06:13;;;;;;;12.43;5.47;;;;;;;15.11;77.36;100252.56;6015591;23;20478;-94
2023/10/11 01:08:40;;;;;;;13.13;4.88;;;;;;;15.12;77.10;100246.25;6063065;23;20098;-95
2023/10/11 01:11:11;;;;;;;13.43;6.85;;;;;;;15.04;77.25;100255.03;6016240;23;20328;-92
2023/10/11 01:13:42;;;;;;;19.45;6.28;;;;;;;15.06;77.19;100246.84;6016184;23;20446;-93
2023/10/11 01:16:10;;;;;;;15.60;5.43;;;;;;;15.04;77.15;100244.34;5992811;23;20118;-93
2023/10/11 01:18:38;;;;;;;11.95;5.68;;;;;;;15.00;77.18;100242.97;6039858;23;20346;-93
2023/10/11 01:21:05;;;;;;;13.63;5.40;;;;;;;14.98;77.18;100252.97;6039568;23;20466;-94
2023/10/11 01:23:36;;;;;;;15.55;5.95;;;;;;;14.93;77.13;100245.44;6015484;23;20439;-92
2023/10/11 01:26:09;;;;;;;12.93;5.57;;;;;;;14.86;77.04;100240.84;6016678;23;20022;-92
2023/10/11 01:28:36;;;;;;;;;;;;;;;14.64;78.12;100247.47;6016955;23;20049;-93
2023/10/11 01:31:11;;;;;;;16.02;6.03;;;;;;;14.81;77.78;100238.63;6016348;23;19988;-93
2023/10/11 01:33:41;;;;;;;14.23;5.22;;;;;;;14.84;77.38;100240.97;6017236;23;20031;-94
2023/10/11 01:36:10;;;;;;;10.95;5.72;;;;;;;14.85;77.37;100239.97;5993460;23;20018;-93
2023/10/11 01:38:49;;;;;;;11.55;5.70;;;;;;;14.80;77.21;100236.94;6040033;23;20022;-93
2023/10/11 01:41:20;;;;;;;13.43;5.55;;;;;;;14.80;77.22;100236.94;6018317;23;20026;-94
2023/10/11 01:43:49;;;;;;;13.52;5.70;;;;;;;14.82;76.89;100239.47;5992519;23;20457;-93
2023/10/11 01:46:21;;;;;;;15.43;6.18;;;;;;;14.77;77.03;100238.06;5994149;23;20118;-93
2023/10/11 01:48:48;;;;;;;13.50;5.40;;;;;;;14.73;77.08;100231.38;5995048;23;20490;-93
2023/10/11 01:51:16;;;;;;;14.98;5.53;;;;;;;14.74;76.90;100225.03;6016913;23;20022;-93
2023/10/11 01:53:44;;;;;;;12.18;6.10;;;;;;;14.74;76.99;100233.03;6018183;23;20034;-93
2023/10/11 01:56:13;;;;;;;10.73;5.10;;;;;;;14.67;77.16;100225.78;6040658;23;20022;-92
2023/10/11 01:58:42;;;;;;;14.02;5.10;;;;;;;14.68;76.86;100224.78;6017929;23;20085;-91
2023/10/11 02:01:26;;;;;;;9.27;4.88;;;;;;;14.50;76.80;100225.59;6017299;23;22785;-92
2023/10/11 02:03:59;;;;;;;15.68;5.22;;;;;;;14.62;76.64;100225.41;6041236;23;20502;-92
2023/10/11 02:06:31;;;;;;;10.85;5.18;;;;;;;14.58;77.30;100222.22;6018136;23;20023;-92
2023/10/11 02:08:59;;;;;;;16.25;6.07;;;;;;;14.59;77.13;100217.69;5995738;23;20355;-92
2023/10/11 02:11:29;;;;;;;12.27;5.47;;;;;;;14.59;76.86;100212.34;6017324;23;20040;-92
2023/10/11 02:13:57;;;;;;;12.45;5.72;;;;;;;14.54;76.88;100210.13;6041490;23;20034;-93
2023/10/11 02:16:25;;;;;;;10.85;5.28;;;;;;;14.52;77.06;100212.06;5994869;23;20518;-93
2023/10/11 02:18:58;;;;;;;10.27;4.88;;;;;;;14.52;77.05;100217.41;6016908;23;20106;-93
2023/10/11 02:21:29;;;;;;;14.40;5.47;;;;;;;14.52;76.82;100222.75;5997017;23;20019;-92
2023/10/11 02:23:58;;;;;;;14.48;6.93;;;;;;;14.46;76.79;100212.69;6063458;23;20015;-91
2023/10/11 02:26:33;;;;;;;10.80;5.47;;;;;;;14.42;77.01;100216.66;6018788;23;20093;-92
2023/10/11 02:29:01;;;;;;;13.85;5.65;;;;;;;14.41;76.68;100213.16;5996126;23;20074;-93
2023/10/11 02:31:33;;;;;;;14.32;5.30;;;;;;;14.42;76.73;100220.16;6017166;23;20022;-93
2023/10/11 02:34:19;;;;;;;12.52;5.40;;;;;;;14.33;76.67;100221.91;5995726;23;20101;-93
2023/10/11 02:37:05;;;;;;;12.38;5.53;;;;;;;14.35;76.78;100219.09;5996892;23;20800;-92
2023/10/11 02:39:32;;;;;;;15.38;5.35;;;;;;;14.37;77.00;100226.94;5997475;23;20022;-93
2023/10/11 02:42:01;;;;;;;14.25;5.90;;;;;;;14.37;76.96;100219.75;6041582;23;20054;-92
2023/10/11 02:44:29;;;;;;;13.43;5.78;;;;;;;14.40;77.08;100218.63;5994628;23;20014;-92
2023/10/11 02:46:58;;;;;;;12.30;5.00;;;;;;;14.34;77.06;100210.22;6039694;23;20352;-92
2023/10/11 02:49:31;;;;;;;13.25;6.70;;;;;;;14.36;76.96;100218.09;6041580;23;20085;-92
2023/10/11 02:52:08;;;;;;;16.63;5.78;;;;;;;14.36;77.25;100206.56;6018766;23;20030;-91
2023/10/11 02:54:39;;;;;;;10.63;4.57;;;;;;;14.37;77.21;100218.94;5994801;23;20094;-93
2023/10/11 02:57:18;;;;;;;14.05;5.85;;;;;;;14.28;77.75;100218.03;6039877;23;21736;-93
2023/10/11 02:59:50;;;;;;;9.90;5.13;;;;;;;14.35;77.55;100221.78;5995590;23;20051;-92
2023/10/11 03:02:20;;;;;;;14.47;5.13;;;;;;;14.32;77.69;100216.72;5994228;23;20387;-92
2023/10/11 03:04:47;;;;;;;17.02;6.38;;;;;;;14.34;77.99;100222.75;6016447;23;20022;-93
2023/10/11 03:07:21;;;;;;;13.85;5.93;;;;;;;14.34;77.74;100218.22;6040633;23;20030;-92
2023/10/11 03:09:49;;;;;;;12.30;5.88;;;;;;;14.30;77.66;100218.72;5994206;23;20046;-92
2023/10/11 03:12:26;;;;;;;17.70;5.60;;;;;;;14.32;77.53;100217.56;6018175;23;20030;-93
2023/10/11 03:14:56;;;;;;;10.90;5.20;;;;;;;14.33;77.39;100213.06;5983864;23;20113;-93
2023/10/11 03:17:26;;;;;;;15.20;5.38;;;;;;;14.32;77.44;100214.03;5995049;23;20480;-93
2023/10/11 03:19:53;;;;;;;12.05;5.47;;;;;;;14.27;77.24;100208.31;6016228;23;20022;-93
2023/10/11 03:22:20;;;;;;;11.65;5.35;;;;;;;14.26;77.14;100214.66;6016484;23;20022;-94
2023/10/11 03:25:12;;;;;;;12.65;5.47;;;;;;;14.25;77.30;100216.47;5993982;23;20795;-93
2023/10/11 03:27:48;;;;;;;12.85;5.82;;;;;;;14.23;77.54;100201.59;6015316;23;20469;-94
2023/10/11 03:30:16;;;;;;;10.82;6.03;;;;;;;14.24;77.39;100203.28;5994359;23;20021;-92
2023/10/11 03:32:47;;;;;;;14.73;5.20;;;;;;;14.24;77.39;100197.94;5981562;23;20077;-93
2023/10/11 03:35:16;;;;;;;14.25;5.90;;;;;;;14.20;77.46;100197.41;5992329;23;20053;-94
2023/10/11 03:37:58;;;;;;;9.77;4.80;;;;;;;14.15;76.93;100202.34;5990909;23;20423;-93
2023/10/11 03:40:54;;;;;;;15.80;5.82;;;;;;;14.12;77.19;100210.66;5992478;23;20028;-88
2023/10/11 03:43:23;;;;;;;14.43;5.65;;;;;;;14.10;77.42;100199.28;5992668;23;20081;-87
2023/10/11 03:45:51;;;;;;;17.42;5.47;;;;;;;14.08;77.31;100193.25;5989279;23;20018;-88
2023/10/11 03:48:19;;;;;;;12.52;5.45;;;;;;;14.08;76.88;100199.44;6059424;23;20018;-86
2023/10/11 03:50:47;;;;;;;9.25;5.13;;;;;;;14.03;76.96;100190.19;6012445;23;20391;-87
2023/10/11 03:53:15;;;;;;;12.40;5.40;;;;;;;14.00;76.84;100196.66;6035665;23;20023;-87
2023/10/11 03:55:46;;;;;;;12.40;5.25;;;;;;;14.00;77.12;100194.00;6035339;23;20026;-86
2023/10/11 03:58:29;;;;;;;13.82;5.72;;;;;;;14.02;76.92;100194.69;6036034;23;20443;-87
2023/10/11 04:01:10;;;;;;;11.05;5.07;;;;;;;14.03;77.58;100188.34;6015184;23;20268;-87
2023/10/11 04:03:39;;;;;;;15.05;4.90;;;;;;;14.07;77.38;100194.25;6013691;23;20023;-87
2023/10/11 04:06:13;;;;;;;15.55;6.03;;;;;;;14.00;77.03;100190.50;6010677;23;20132;-87
2023/10/11 04:08:43;;;;;;;13.90;6.20;;;;;;;14.02;77.44;100194.69;6011373;23;20028;-88
2023/10/11 04:11:30;;;;;;;11.05;5.50;;;;;;;14.04;77.42;100184.72;6035002;23;22141;-87
2023/10/11 04:13:57;;;;;;;13.27;5.60;;;;;;;14.02;77.54;100184.00;6066252;23;20046;-88
2023/10/11 04:16:25;;;;;;;12.35;5.95;;;;;;;14.05;77.37;100191.72;6060641;23;20478;-89
2023/10/11 04:18:52;;;;;;;15.30;6.00;;;;;;;14.07;77.49;100192.41;6014522;23;20466;-88
2023/10/11 04:21:26;;;;;;;17.73;5.15;;;;;;;14.08;77.59;100196.75;6038590;23;20510;-88
2023/10/11 04:23:56;;;;;;;14.35;5.70;;;;;;;14.03;78.12;100187.53;6016424;23;20022;-89
2023/10/11 04:26:32;;;;;;;13.30;6.03;;;;;;;13.99;77.28;100189.66;6062259;23;20019;-88
2023/10/11 04:29:06;;;;;;;13.77;5.18;;;;;;;13.98;77.37;100190.63;6040304;23;20042;-90
2023/10/11 04:31:54;;;;;;;10.20;4.72;;;;;;;13.89;77.31;100189.72;6062314;23;20029;-89
2023/10/11 04:34:24;;;;;;;13.10;5.68;;;;;;;13.82;77.46;100193.94;6038419;23;20022;-89
2023/10/11 04:36:55;;;;;;;15.75;6.20;;;;;;;13.87;77.68;100199.69;6062813;23;20082;-88
2023/10/11 04:39:33;;;;;;;18.58;6.05;;;;;;;13.92;77.79;100201.06;6063239;23;20049;-88
2023/10/11 04:42:08;;;;;;;15.20;5.47;;;;;;;13.90;77.67;100201.22;6119011;23;20025;-93
2023/10/11 04:44:42;;;;;;;13.90;6.00;;;;;;;13.91;77.25;100202.88;6098656;23;20025;-95
2023/10/11 04:47:11;;;;;;;14.50;5.38;;;;;;;13.86;77.28;100200.66;6076411;23;20027;-94
2023/10/11 04:49:38;;;;;;;14.23;6.13;;;;;;;13.89;77.35;100200.38;6097606;23;20044;-93
2023/10/11 04:52:17;;;;;;;11.55;5.38;;;;;;;13.93;77.24;100210.75;6099486;23;20438;-95
2023/10/11 04:54:53;;;;;;;10.27;4.68;;;;;;;13.86;77.13;100208.66;6100639;23;20100;-95
2023/10/11 04:58:03;;;;;;;11.73;5.35;;;;;;;13.88;76.84;100201.34;6118914;23;20020;-96
2023/10/11 05:00:31;;;;;;;16.13;5.43;;;;;;;13.82;76.82;100193.13;6098751;23;20029;-89
2023/10/11 05:03:02;;;;;;;9.23;5.00;;;;;;;13.86;76.92;100205.16;6091128;23;20699;-90
2023/10/11 05:05:29;;;;;;;14.70;5.90;;;;;;;13.85;76.89;100208.84;6115682;23;20025;-89
2023/10/11 05:08:05;;;;;;;14.77;5.85;;;;;;;13.82;76.67;100215.31;6117430;23;20701;-89
2023/10/11 05:10:43;;;;;;;11.52;5.80;;;;;;;13.79;76.95;100209.41;6119719;23;20060;-89
2023/10/11 05:13:13;;;;;;;14.23;6.07;;;;;;;13.73;76.96;100202.00;6071975;23;20041;-89
2023/10/11 05:15:47;;;;;;;14.80;5.72;;;;;;;13.74;76.55;100201.88;6068959;23;20018;-89
2023/10/11 05:18:23;;;;;;;13.23;6.30;;;;;;;13.74;76.50;100196.53;6094790;23;20037;-89
2023/10/11 05:20:57;;;;;;;11.90;5.57;;;;;;;13.74;76.26;100207.19;6072649;23;20406;-89
2023/10/11 05:23:41;;;;;;;11.52;5.68;;;;;;;13.73;76.50;100199.31;6096984;23;20037;-89
2023/10/11 05:29:24;;;;;;;12.02;5.25;;;;;;;13.70;76.46;100200.47;6054238;23;20037;-89
2023/10/11 05:32:33;;;;;;;13.43;6.20;;;;;;;13.71;76.43;100198.63;6111065;23;20404;-89
2023/10/11 05:51:27;;;;;;;12.43;5.07;;;;;;;13.33;76.46;100187.09;6097466;23;20029;-89
2023/10/11 05:53:54;;;;;;;12.48;5.25;;;;;;;13.36;76.40;100192.19;6070608;23;20458;-89
2023/10/11 05:56:21;;;;;;;12.00;5.90;;;;;;;13.37;76.17;100194.69;6093823;23;20045;-89
2023/10/11 05:58:50;;;;;;;13.00;5.40;;;;;;;13.37;76.01;100193.84;6094116;23;20013;-89
2023/10/11 06:01:22;;;;;;;11.95;6.40;;;;;;;13.38;75.99;100203.50;6092993;23;20033;-90
2023/10/11 06:03:55;;;;;;;15.48;6.85;;;;;;;13.32;76.14;100210.28;6069872;23;20033;-89
2023/10/11 06:06:38;;;;;;;18.30;6.53;;;;;;;13.34;76.31;100213.66;6070486;23;20018;-89
2023/10/11 06:09:06;;;;;;;13.27;6.25;;;;;;;13.33;76.71;100214.66;6049429;23;20014;-89
2023/10/11 06:11:36;;;;;;;15.52;8.13;;;;;;;13.35;76.87;100201.97;6068652;23;20059;-89
2023/10/11 06:14:04;;;;;;;14.85;7.30;;;;;;;13.43;76.72;100211.91;6070607;23;20029;-89
2023/10/11 06:16:37;;;;;;;18.17;7.85;;;;;;;13.39;76.83;100218.56;6069450;23;20032;-89
2023/10/11 06:19:17;;;;;;;23.25;7.75;;;;;;;13.39;77.07;100215.88;6069459;23;20026;-90
2023/10/11 06:22:09;;;;;;;18.73;8.38;;;;;;;13.35;77.17;100214.47;6092941;23;20084;-89
2023/10/11 06:24:37;;;;;;;18.23;8.10;;;;;;;13.42;77.50;100220.94;6093406;23;20018;-89
2023/10/11 06:29:55;;;;;;;17.88;8.43;;;;;;;13.45;77.66;100223.28;6082213;23;20021;-89
2023/10/11 06:32:23;;;;;;;16.25;7.82;;;;;;;13.51;77.19;100219.19;6092268;23;20104;-89
2023/10/11 06:34:50;;;;;;;20.25;6.40;;;;;;;13.52;77.49;100221.72;6068306;23;20106;-89
2023/10/11 06:37:19;;;;;;;17.55;7.47;;;;;;;13.51;77.73;100219.19;6071087;23;20021;-89
2023/10/11 06:44:59;;;;;;;13.43;6.32;;;;;;;13.55;76.63;100224.09;6092465;23;20386;-89
2023/10/11 06:47:33;;;;;;;19.02;6.07;;;;;;;13.61;76.62;100226.22;6069492;23;20125;-89
2023/10/11 06:50:12;;;;;;;17.13;6.03;;;;;;;13.65;76.82;100226.75;6094121;23;20093;-89
2023/10/11 06:52:43;;;;;;;19.02;5.85;;;;;;;13.64;76.84;100219.75;6092631;23;20064;-89
2023/10/11 06:55:22;;;;;;;15.13;6.22;;;;;;;13.72;76.63;100224.34;6117716;23;20561;-89
2023/10/11 06:57:50;;;;;;;15.70;6.40;;;;;;;13.72;76.78;100225.19;6069589;23;20065;-90
2023/10/11 07:00:29;;;;;;;15.07;6.43;;;;;;;13.70;76.65;100224.47;6094296;23;20041;-89
2023/10/11 07:03:45;;;;;;;19.38;6.50;;;;;;;13.74;76.52;100225.88;6071138;23;20044;-89
2023/10/11 07:05:48;;;;;;;17.02;7.10;;;;;;;13.76;76.39;100217.72;6101529;23;20029;-89
2023/10/11 07:08:20;;;;;;;19.52;6.88;;;;;;;13.81;76.59;100226.13;6093925;23;20025;-89
2023/10/11 07:16:31;;;;;;;15.85;6.95;;;;;;;13.87;76.33;100239.72;6096742;23;20052;-89
2023/10/11 07:18:58;;;;;;;18.10;8.48;;;;;;;13.89;76.32;100240.44;6116674;23;20021;-89
2023/10/11 07:21:27;;;;;;;16.45;6.97;;;;;;;13.95;76.14;100240.81;6092861;23;20026;-89
2023/10/11 07:28:52;;;;;;;19.60;7.97;;;;;;;13.98;76.55;100256.53;6093181;23;20052;-89
2023/10/11 07:31:33;;;;;;;17.90;6.53;;;;;;;13.99;76.87;100259.09;6093892;23;20512;-89
2023/10/11 07:34:06;;;;;;;16.55;7.35;;;;;;;13.99;77.07;100258.22;6071539;23;20084;-89
2023/10/11 07:36:37;;;;;;;16.30;6.45;;;;;;;14.02;77.03;100260.63;6093053;23;20041;-88
2023/10/11 07:39:14;;;;;;;16.38;6.88;;;;;;;14.01;77.05;100251.75;6095751;23;20033;-89
2023/10/11 07:41:42;;;;;;;20.85;7.32;;;;;;;14.03;77.18;100240.91;6110567;23;20132;-89
2023/10/11 07:44:10;;;;;;;19.15;6.78;;;;;;;14.11;76.97;100244.53;6094622;23;20026;-88
2023/10/11 07:46:38;;;;;;;14.45;6.28;;;;;;;14.08;76.98;100242.16;6118257;23;20026;-89
2023/10/11 07:49:37;;;;;;;23.35;7.45;;;;;;;14.17;77.07;100247.59;6096967;23;20071;-89
2023/10/11 07:52:01;;;;;;;14.38;7.75;;;;;;;14.21;77.08;100247.16;6122635;23;20041;-88
2023/10/11 07:54:28;;;;;;;18.13;6.70;;;;;;;14.23;77.17;100247.00;6095235;23;20026;-88
2023/10/11 07:56:59;;;;;;;19.95;7.22;;;;;;;14.32;77.36;100246.09;6094301;23;20029;-89
2023/10/11 07:59:27;;;;;;;18.83;7.90;;;;;;;14.36;77.22;100247.47;6118925;23;20452;-89
2023/10/11 08:01:59;;;;;;;15.07;6.93;;;;;;;14.39;77.31;100244.50;6144759;23;20096;-88
2023/10/11 08:04:29;;;;;;;14.38;6.57;;;;;;;14.44;77.05;100242.22;6120939;23;20025;-88
2023/10/11 08:06:59;;;;;;;13.90;6.75;;;;;;;14.47;77.04;100236.56;6094891;23;20022;-88
2023/10/11 08:09:45;;;;;;;16.27;6.65;;;;;;;14.52;76.88;100244.13;6071122;23;20026;-88
2023/10/11 08:12:14;;;;;;;17.30;7.82;;;;;;;14.52;77.16;100242.31;6074502;23;20021;-88
2023/10/11 08:14:45;;;;;;;19.13;6.53;;;;;;;14.57;77.09;100231.19;6119043;23;20028;-88
2023/10/11 08:17:16;;;;;;;17.58;6.65;;;;;;;14.61;77.02;100221.91;6144444;23;20097;-88
2023/10/11 08:19:44;;;;;;;17.75;7.30;;;;;;;14.68;77.32;100211.41;6095651;23;20021;-88
2023/10/11 08:22:15;;;;;;;15.48;7.88;;;;;;;14.73;77.18;100212.66;6096995;23;20093;-88
2023/10/11 08:24:47;;;;;;;13.73;6.90;;;;;;;14.79;77.32;100205.84;6120290;23;20076;-87
2023/10/11 08:30:16;;;;;;;18.00;8.43;;;;;;;14.81;78.47;100222.59;6143811;23;20087;-87
2023/10/11 08:32:45;;;;;;;18.45;6.82;;;;;;;14.91;78.08;100226.00;6120376;23;20028;-88
2023/10/11 08:35:23;;;;;;;24.60;8.30;;;;;;;14.93;77.82;100220.50;6073398;23;20025;-88
2023/10/11 08:37:52;;;;;;;17.48;7.05;;;;;;;14.96;77.86;100220.22;6098151;23;20032;-87
2023/10/11 08:40:22;;;;;;;16.20;6.63;;;;;;;14.96;77.63;100215.69;6072399;23;20045;-88
2023/10/11 08:42:50;;;;;;;17.23;6.45;;;;;;;15.02;77.64;100216.91;6096135;23;20025;-88
2023/10/11 08:45:24;;;;;;;22.60;7.28;;;;;;;15.06;77.70;100207.59;6094593;23;20032;-88
2023/10/11 08:47:52;;;;;;;18.30;6.97;;;;;;;15.10;77.55;100203.59;6094836;23;20346;-87
2023/10/11 08:50:19;;;;;;;17.95;6.85;;;;;;;15.15;77.63;100201.28;6120082;23;20025;-87
2023/10/11 08:52:46;;;;;;;17.33;7.28;;;;;;;15.21;77.83;100207.84;6095609;23;20021;-88
2023/10/11 08:55:14;;;;;;;16.15;6.43;;;;;;;15.23;77.75;100197.81;6095343;23;20336;-87
2023/10/11 08:57:47;;;;;;;17.08;6.50;;;;;;;15.26;77.75;100197.50;6095384;23;20044;-87
2023/10/11 09:00:47;;;;;;;17.63;6.65;;;;;;;15.29;78.12;100193.69;6120908;23;20402;-87
2023/10/11 09:03:20;;;;;;;18.73;7.43;;;;;;;15.30;78.71;100195.38;6073117;23;20080;-88
2023/10/11 09:05:47;;;;;;;19.35;6.35;;;;;;;15.37;78.44;100205.28;6071673;23;20029;-88
2023/10/11 09:08:22;;;;;;;15.77;6.43;;;;;;;15.37;78.91;100202.59;6071387;23;20402;-87
2023/10/11 09:10:51;;;;;;;13.57;6.60;;;;;;;15.44;78.37;100191.25;6096395;23;20021;-87
2023/10/11 09:13:26;;;;;;;14.55;6.40;;;;;;;15.45;78.17;100192.97;6095682;23;20386;-88
2023/10/11 09:15:56;;;;;;;17.65;6.90;;;;;;;15.50;78.41;100188.81;6119883;23;20052;-87
2023/10/11 09:18:34;;;;;;;18.25;6.95;;;;;;;15.56;78.54;100187.31;6071591;23;20025;-87
2023/10/11 09:21:10;;;;;;;19.60;6.15;;;;;;;15.60;78.52;100194.03;6099551;23;20093;-87
2023/10/11 09:23:47;;;;;;;15.75;6.80;;;;;;;15.62;78.36;100187.53;6071423;23;20092;-87
2023/10/11 09:26:21;;;;;;;16.70;6.22;;;;;;;15.67;78.30;100183.53;6097433;23;20096;-87
2023/10/11 09:28:57;;;;;;;12.40;5.88;;;;;;;15.73;78.74;100190.97;6074366;23;20350;-87
2023/10/11 09:31:25;;;;;;;14.23;6.75;;;;;;;15.75;78.95;100192.47;6094390;23;20076;-87
2023/10/11 09:33:59;;;;;;;19.83;6.60;;;;;;;15.81;79.02;100197.19;6119316;23;20125;-87
2023/10/11 09:36:28;;;;;;;14.85;6.40;;;;;;;15.84;79.14;100187.97;6097212;23;20029;-87
2023/10/11 09:38:56;;;;;;;16.33;6.47;;;;;;;15.88;79.39;100193.88;6120352;23;20027;-87
2023/10/11 09:41:39;;;;;;;15.25;7.15;;;;;;;15.88;79.04;100192.03;6106650;23;20022;-86
2023/10/11 09:44:07;;;;;;;17.48;7.10;;;;;;;15.97;78.84;100192.88;6096071;23;20049;-87
2023/10/11 09:46:34;;;;;;;15.48;7.43;;;;;;;16.01;78.78;100200.44;6071270;23;20017;-87
2023/10/11 09:49:03;;;;;;;16.58;6.70;;;;;;;16.07;78.61;100201.63;6096951;23;20029;-87
2023/10/11 09:51:31;;;;;;;20.83;7.30;;;;;;;16.09;78.60;100196.94;6144660;23;20177;-87
2023/10/11 09:54:07;;;;;;;18.17;6.35;;;;;;;16.12;78.72;100199.31;6096459;23;20032;-87
2023/10/11 09:56:49;;;;;;;20.25;7.65;;;;;;;16.18;78.57;100187.94;6121933;23;20065;-87
2023/10/11 09:59:27;;;;;;;17.52;7.35;;;;;;;16.18;78.48;100187.09;6119150;23;20021;-87
2023/10/11 10:02:07;;;;;;;15.23;6.32;;;;;;;16.24;77.97;100183.78;6120936;23;20028;-87
2023/10/11 10:04:51;;;;;;;16.33;6.55;;;;;;;16.24;78.05;100186.44;6145631;23;20022;-87
2023/10/11 10:07:32;;;;;;;19.60;6.90;;;;;;;16.33;78.44;100168.53;6120907;23;20025;-87
2023/10/11 10:10:00;;;;;;;17.17;5.65;;;;;;;16.37;78.75;100175.25;6149037;23;20072;-87
2023/10/11 10:12:42;;;;;;;18.55;7.15;;;;;;;16.43;79.32;100180.78;6122624;23;20017;-86
2023/10/11 10:15:23;;;;;;;18.23;7.53;;;;;;;16.45;79.29;100180.63;6097185;23;20053;-87
2023/10/11 10:18:00;;;;;;;13.80;6.28;;;;;;;16.53;79.48;100177.09;6099336;23;20076;-87
2023/10/11 10:20:33;;;;;;;15.68;5.35;;;;;;;16.60;79.89;100170.09;6146179;23;20349;-87
2023/10/11 10:23:15;;;;;;;;;;;;;;;16.55;81.06;100167.06;6121760;23;20029;-87
2023/10/11 10:26:13;;;;;;;15.05;6.72;;;;;;;16.67;80.11;100171.09;6147164;23;19916;-87
2023/10/11 10:28:47;;;;;;;15.90;6.13;;;;;;;16.78;79.97;100169.94;6089548;23;20088;-87
2023/10/11 10:31:17;;;;;;;15.57;6.30;;;;;;;16.81;79.13;100164.25;6098421;23;20029;-87
2023/10/11 10:33:51;;;;;;;11.98;5.35;;;;;;;16.90;79.22;100163.25;6122061;23;20021;-86
2023/10/11 10:36:21;;;;;;;13.98;5.35;;;;;;;16.95;78.81;100155.53;6146590;23;20105;-87
2023/10/11 10:38:58;;;;;;;9.43;5.50;;;;;;;16.98;78.69;100152.50;6146693;23;20022;-86
2023/10/11 10:41:26;;;;;;;14.02;4.28;;;;;;;17.05;77.76;100152.69;6098312;23;20025;-87
2023/10/11 10:44:18;;;;;;;17.90;4.20;;;;;;;17.05;75.54;100147.31;6122904;23;20029;-86
2023/10/11 10:46:53;;;;;;;14.27;4.00;;;;;;;17.11;75.45;100138.56;6122739;23;20366;-87
2023/10/11 10:49:23;;;;;;;11.68;3.97;;;;;;;17.18;74.31;100144.09;6097699;23;20036;-87
2023/10/11 10:51:53;;;;;;;13.43;4.45;;;;;;;17.24;73.62;100135.34;6095969;23;20622;-88
2023/10/11 10:54:25;;;;;;;10.85;4.18;;;;;;;17.27;73.22;100135.84;6100186;23;20033;-87
2023/10/11 10:56:53;;;;;;;14.68;3.90;;;;;;;17.34;73.19;100133.31;6075292;23;20041;-87
2023/10/11 10:59:21;;;;;;;9.43;4.28;;;;;;;17.35;73.16;100117.03;6122518;23;20028;-87
2023/10/11 11:01:50;;;;;;;8.95;3.60;;;;;;;17.40;72.65;100129.94;6123007;23;20382;-87
2023/10/11 11:04:20;;;;;;;11.18;4.47;;;;;;;17.40;72.38;100119.19;6098390;23;20020;-87
2023/10/11 11:06:49;;;;;;;9.82;3.88;;;;;;;17.47;72.66;100122.84;6075184;23;20021;-87
2023/10/11 11:09:27;;;;;;;8.68;3.63;;;;;;;17.52;72.16;100111.59;6098356;23;20096;-86
2023/10/11 11:12:08;;;;;;;8.25;4.32;;;;;;;17.56;72.17;100112.94;6099860;23;20053;-86
2023/10/11 11:14:37;;;;;;;12.52;3.80;;;;;;;17.57;72.00;100107.38;6099395;23;20025;-86
2023/10/11 11:17:09;;;;;;;12.57;4.53;;;;;;;17.64;71.30;100112.06;6098891;23;20030;-87
2023/10/11 11:19:36;;;;;;;8.05;4.00;;;;;;;17.66;71.04;100104.69;6099763;23;20382;-87
2023/10/11 11:22:12;;;;;;;15.43;4.22;;;;;;;17.69;71.06;100099.78;6119822;23;20071;-87
2023/10/11 11:24:41;;;;;;;11.90;4.43;;;;;;;17.77;71.06;100099.72;6072043;23;20021;-87
2023/10/11 11:27:18;;;;;;;12.25;3.92;;;;;;;17.76;70.31;100099.94;6122810;23;20027;-87
2023/10/11 11:29:48;;;;;;;9.95;4.03;;;;;;;17.86;70.74;100099.72;6074039;23;20450;-87
2023/10/11 11:32:16;;;;;;;11.85;3.80;;;;;;;17.89;70.74;100102.91;6123450;23;20013;-87
2023/10/11 11:35:28;;;;;;;10.52;4.63;;;;;;;17.91;70.35;100098.19;6098728;23;20025;-86
2023/10/11 11:38:05;;;;;;;13.63;3.97;;;;;;;18.00;70.75;100094.44;6101538;23;20030;-87
2023/10/11 11:40:36;;;;;;;13.25;3.92;;;;;;;18.10;69.99;100102.25;6123207;23;20021;-87
2023/10/11 11:43:04;;;;;;;12.80;3.47;;;;;;;18.14;69.85;100083.91;6098963;23;20049;-87
2023/10/11 11:45:35;;;;;;;9.93;3.72;;;;;;;18.16;69.72;100071.97;6122825;23;20434;-86
2023/10/11 11:48:05;;;;;;;13.17;3.73;;;;;;;18.17;69.29;100070.16;6123183;23;20032;-88
2023/10/11 11:50:37;;;;;;;12.43;3.67;;;;;;;18.19;69.21;100063.56;6120952;23;20421;-87
2023/10/11 11:53:05;;;;;;;12.18;4.03;;;;;;;18.21;69.27;100069.59;6119648;23;20055;-87
2023/10/11 11:55:34;;;;;;;12.65;4.75;;;;;;;18.24;69.32;100068.38;6095028;23;20096;-87
2023/10/11 11:58:10;;;;;;;10.25;3.63;;;;;;;18.30;69.16;100064.16;6118727;23;20033;-87
2023/10/11 12:00:40;;;;;;;11.40;4.60;;;;;;;18.30;69.09;100054.25;6096432;23;20100;-87
2023/10/11 12:03:08;;;;;;;16.23;4.03;;;;;;;18.32;69.13;100049.53;6142938;23;20045;-87
2023/10/11 12:05:42;;;;;;;8.80;3.42;;;;;;;18.36;68.78;100050.81;6093534;23;20017;-86
2023/10/11 12:08:20;;;;;;;14.57;4.38;;;;;;;18.42;68.79;100051.97;6121318;23;20465;-87
2023/10/11 12:10:49;;;;;;;14.35;4.20;;;;;;;18.43;68.68;100067.06;6123475;23;20041;-87
2023/10/11 12:13:23;;;;;;;9.25;4.10;;;;;;;18.49;68.96;100046.69;6098677;23;20445;-88
2023/10/11 12:15:54;;;;;;;13.80;3.95;;;;;;;18.53;68.71;100054.22;6142577;23;20010;-87
2023/10/11 12:18:32;;;;;;;10.07;3.20;;;;;;;18.58;67.86;100043.75;6069756;23;20032;-87
2023/10/11 12:21:03;;;;;;;15.32;3.92;;;;;;;18.60;68.80;100049.78;6095341;23;20704;-88
2023/10/11 12:23:29;;;;;;;8.85;3.47;;;;;;;18.64;68.59;100051.06;6070374;23;20315;-87
2023/10/11 12:25:56;;;;;;;14.35;4.20;;;;;;;18.68;68.24;100051.56;6092789;23;20025;-87
2023/10/11 12:28:25;;;;;;;8.43;3.53;;;;;;;18.72;68.35;100044.78;6092306;23;20091;-88